createdAt,value
2022-08-05T00:00:46.470Z,4.93
2022-08-05T00:03:18.014Z,5.25
2022-08-05T00:06:05.446Z,10.40
2022-08-05T00:08:36.279Z,9.18
2022-08-05T00:11:23.911Z,10.57
2022-08-05T00:13:56.916Z,10.90
2022-08-05T00:16:36.150Z,5.28
2022-08-05T00:19:05.284Z,7.30
2022-08-05T00:21:35.609Z,12.35
2022-08-05T00:24:10.414Z,10.55
2022-08-05T00:26:39.458Z,7.22
2022-08-05T00:29:19.044Z,8.32
2022-08-05T00:31:53.400Z,8.73
2022-08-05T00:34:56.278Z,10.20
2022-08-05T00:37:14.233Z,8.05
2022-08-05T00:39:58.566Z,6.03
2022-08-05T00:42:35.237Z,9.00
2022-08-05T00:45:05.701Z,13.40
2022-08-05T00:47:56.570Z,9.18
2022-08-05T00:50:25.844Z,8.10
2022-08-05T00:52:55.529Z,8.45
2022-08-05T00:55:34.020Z,11.10
2022-08-05T00:58:11.568Z,13.32
2022-08-05T01:00:42.006Z,8.07
2022-08-05T01:03:22.395Z,9.02
2022-08-05T01:05:51.500Z,6.13
2022-08-05T01:08:40.576Z,7.25
2022-08-05T01:11:14.024Z,7.50
2022-08-05T01:14:00.665Z,8.40
2022-08-05T01:16:35.504Z,10.75
2022-08-05T01:19:14.197Z,12.10
2022-08-05T01:21:58.248Z,9.55
2022-08-05T01:24:48.498Z,7.47
2022-08-05T01:27:34.000Z,9.10
2022-08-05T01:30:05.654Z,8.32
2022-08-05T01:32:48.447Z,9.20
2022-08-05T01:35:51.806Z,8.73
2022-08-05T01:38:09.525Z,6.75
2022-08-05T01:40:55.166Z,8.30
2022-08-05T01:43:24.838Z,7.05
2022-08-05T01:45:57.129Z,11.20
2022-08-05T01:48:27.587Z,8.27
2022-08-05T01:50:58.125Z,6.75
2022-08-05T01:53:58.347Z,9.05
2022-08-05T01:58:11.341Z,7.30
2022-08-05T01:59:15.903Z,7.05
2022-08-05T02:01:49.410Z,14.10
2022-08-05T02:04:20.796Z,7.78
2022-08-05T02:06:49.418Z,8.98
2022-08-05T02:09:20.632Z,6.38
2022-08-05T02:11:52.859Z,8.20
2022-08-05T02:14:29.524Z,9.82
2022-08-05T02:17:07.654Z,12.05
2022-08-05T02:19:50.679Z,6.47
2022-08-05T02:22:26.775Z,7.55
2022-08-05T02:25:02.449Z,7.65
2022-08-05T02:27:59.289Z,9.95
2022-08-05T02:30:23.519Z,7.72
2022-08-05T02:32:58.880Z,8.88
2022-08-05T02:35:33.232Z,9.90
2022-08-05T02:38:09.362Z,6.93
2022-08-05T02:40:38.462Z,6.25
2022-08-05T02:43:08.189Z,10.40
2022-08-05T02:45:52.878Z,6.53
2022-08-05T02:48:29.186Z,6.85
2022-08-05T02:51:00.973Z,5.72
2022-08-05T02:53:39.212Z,5.90
2022-08-05T02:56:11.216Z,7.72
2022-08-05T02:58:45.357Z,9.48
2022-08-05T03:01:24.054Z,6.68
2022-08-05T03:04:02.907Z,7.13
2022-08-05T03:06:56.032Z,11.35
2022-08-05T03:09:36.290Z,6.57
2022-08-05T03:12:07.853Z,8.32
2022-08-05T03:14:45.802Z,8.80
2022-08-05T03:17:14.400Z,9.85
2022-08-05T03:19:45.795Z,8.45
2022-08-05T03:22:18.901Z,10.32
2022-08-05T03:25:11.787Z,9.35
2022-08-05T03:27:59.785Z,11.57
2022-08-05T03:30:34.060Z,10.23
2022-08-05T03:33:04.239Z,9.88
2022-08-05T03:35:41.079Z,8.85
2022-08-05T03:38:11.647Z,10.38
2022-08-05T03:40:45.391Z,10.48
2022-08-05T03:44:09.025Z,7.85
2022-08-05T03:46:08.305Z,8.45
2022-08-05T03:48:36.730Z,8.90
2022-08-05T03:52:38.910Z,9.10
2022-08-05T03:55:53.544Z,12.05
2022-08-05T03:56:59.002Z,8.52
2022-08-05T03:59:47.343Z,11.05
2022-08-05T04:02:38.843Z,12.00
2022-08-05T04:05:14.265Z,11.85
2022-08-05T04:07:52.867Z,11.10
2022-08-05T04:10:30.832Z,15.95
2022-08-05T04:13:04.299Z,16.58
2022-08-05T04:15:32.962Z,10.68
2022-08-05T04:18:03.323Z,14.45
2022-08-05T04:20:31.453Z,13.15
2022-08-05T04:23:01.310Z,15.32
2022-08-05T04:25:56.518Z,11.00
2022-08-05T04:28:17.513Z,12.57
2022-08-05T04:30:45.684Z,14.40
2022-08-05T04:33:14.249Z,12.65
2022-08-05T04:36:15.759Z,13.50
2022-08-05T04:38:39.479Z,12.60
2022-08-05T04:41:10.043Z,13.20
2022-08-05T04:43:40.567Z,12.45
2022-08-05T04:46:14.910Z,10.73
2022-08-05T04:48:58.777Z,12.93
2022-08-05T04:51:30.613Z,12.75
2022-08-05T04:54:01.345Z,10.70
2022-08-05T04:56:34.280Z,11.68
2022-08-05T04:59:21.406Z,11.40
2022-08-05T05:02:08.306Z,15.85
2022-08-05T05:04:44.186Z,11.95
2022-08-05T05:07:17.185Z,14.10
2022-08-05T05:09:46.941Z,14.18
2022-08-05T05:12:15.079Z,15.27
2022-08-05T05:14:50.581Z,14.80
2022-08-05T05:17:23.765Z,15.20
2022-08-05T05:19:54.553Z,15.00
2022-08-05T05:22:26.363Z,15.98
2022-08-05T05:24:59.948Z,14.02
2022-08-05T05:27:41.150Z,14.20
2022-08-05T05:30:29.664Z,14.10
2022-08-05T05:33:09.041Z,14.40
2022-08-05T05:35:45.061Z,12.98
2022-08-05T05:38:14.247Z,15.90
2022-08-05T05:40:48.103Z,15.02
2022-08-05T05:43:22.135Z,14.70
2022-08-05T05:46:13.774Z,14.57
2022-08-05T05:48:45.944Z,14.90
2022-08-05T05:51:23.384Z,16.08
2022-08-05T05:53:58.079Z,15.75
2022-08-05T05:56:32.326Z,16.67
2022-08-05T05:59:05.098Z,16.55
2022-08-05T06:01:37.980Z,19.42
2022-08-05T06:04:11.366Z,15.07
2022-08-05T06:06:41.670Z,14.48
2022-08-05T06:09:17.063Z,16.55
2022-08-05T06:12:01.746Z,16.65
2022-08-05T06:14:31.232Z,17.00
2022-08-05T06:17:02.238Z,17.60
2022-08-05T06:19:57.232Z,15.63
2022-08-05T06:22:29.692Z,16.50
2022-08-05T06:24:58.465Z,18.23
2022-08-05T06:28:09.271Z,20.10
2022-08-05T06:30:19.982Z,19.48
2022-08-05T06:32:50.735Z,20.50
2022-08-05T06:36:02.969Z,19.42
2022-08-05T06:38:11.696Z,14.95
2022-08-05T06:40:42.050Z,18.45
2022-08-05T06:43:51.632Z,19.75
2022-08-05T06:46:04.059Z,19.98
2022-08-05T06:48:52.647Z,18.58
2022-08-05T06:51:29.062Z,19.90
2022-08-05T06:53:58.948Z,21.45
2022-08-05T06:56:27.350Z,20.98
2022-08-05T06:58:57.253Z,21.13
2022-08-05T07:01:31.963Z,21.25
2022-08-05T07:04:03.004Z,23.98
2022-08-05T07:06:31.995Z,23.90
2022-08-05T07:09:04.265Z,23.48
2022-08-05T07:11:36.940Z,24.83
2022-08-05T07:14:29.565Z,26.13
2022-08-05T07:17:59.179Z,25.48
2022-08-05T07:22:38.926Z,26.70
2022-08-05T07:25:22.779Z,25.27
2022-08-05T07:28:03.745Z,27.17
2022-08-05T07:30:38.703Z,26.92
2022-08-05T07:33:15.482Z,27.10
2022-08-05T07:36:04.526Z,28.20
2022-08-05T07:38:42.594Z,27.58
2022-08-05T07:41:34.958Z,29.38
2022-08-05T07:44:05.971Z,29.88
2022-08-05T07:46:48.317Z,30.00
2022-08-05T07:49:18.400Z,28.17
2022-08-05T07:51:53.103Z,28.00
2022-08-05T07:54:31.598Z,31.00
2022-08-05T07:57:22.579Z,31.30
2022-08-05T07:59:50.737Z,30.08
2022-08-05T08:02:26.486Z,31.98
2022-08-05T08:04:59.520Z,29.52
2022-08-05T08:07:29.378Z,34.05
2022-08-05T08:10:08.894Z,33.15
2022-08-05T08:12:49.387Z,34.50
2022-08-05T08:15:18.277Z,32.85
2022-08-05T08:18:13.988Z,31.45
2022-08-05T08:21:03.349Z,31.20
2022-08-05T08:24:01.969Z,32.72
2022-08-05T08:26:26.890Z,36.55
2022-08-05T08:29:21.735Z,35.15
2022-08-05T08:31:47.459Z,33.55
2022-08-05T08:34:18.638Z,34.60
2022-08-05T08:36:54.701Z,35.30
2022-08-05T08:39:26.652Z,36.05
2022-08-05T08:41:59.646Z,39.28
2022-08-05T08:45:21.057Z,36.67
2022-08-05T08:48:07.713Z,39.47
2022-08-05T08:50:30.623Z,40.33
2022-08-05T08:53:07.946Z,38.92
2022-08-05T08:56:03.948Z,38.58
2022-08-05T08:58:43.332Z,39.53
2022-08-05T09:01:18.340Z,39.53
2022-08-05T09:03:54.295Z,38.33
2022-08-05T09:06:28.144Z,36.40
2022-08-05T09:08:58.909Z,39.67
2022-08-05T09:11:52.504Z,39.05
2022-08-05T09:14:58.480Z,41.15
2022-08-05T09:17:08.138Z,43.00
2022-08-05T09:20:01.795Z,45.22
2022-08-05T09:22:32.100Z,42.15
2022-08-05T09:25:13.666Z,43.28
2022-08-05T09:28:03.982Z,45.25
2022-08-05T09:30:35.534Z,49.90
2022-08-05T09:33:07.286Z,47.63
2022-08-05T09:35:36.179Z,47.35
2022-08-05T09:38:12.632Z,48.03
2022-08-05T09:40:52.229Z,49.38
2022-08-05T09:43:40.514Z,47.30
2022-08-05T09:46:27.234Z,49.67
2022-08-05T09:49:07.682Z,44.70
2022-08-05T09:51:49.731Z,42.42
2022-08-05T09:54:31.994Z,40.42
2022-08-05T09:57:01.664Z,41.15
2022-08-05T09:59:34.992Z,43.97
2022-08-05T10:02:05.455Z,41.92
2022-08-05T10:04:38.463Z,41.85
2022-08-05T10:07:19.579Z,35.97
2022-08-05T10:10:14.212Z,37.75
2022-08-05T10:12:49.273Z,38.03
2022-08-05T10:15:23.966Z,38.42
2022-08-05T10:18:12.068Z,38.28
2022-08-05T10:20:44.116Z,39.20
2022-08-05T10:23:34.073Z,37.35
2022-08-05T10:26:06.978Z,37.20
2022-08-05T10:28:36.762Z,37.25
2022-08-05T10:32:53.303Z,39.38
2022-08-05T10:33:54.746Z,35.85
2022-08-05T10:36:23.606Z,38.63
2022-08-05T10:39:01.464Z,34.80
2022-08-05T10:41:48.118Z,34.60
2022-08-05T10:44:19.891Z,28.90
2022-08-05T10:46:50.869Z,27.52
2022-08-05T10:49:26.763Z,23.88
2022-08-05T10:52:00.320Z,22.35
2022-08-05T10:55:03.021Z,21.13
2022-08-05T10:57:34.301Z,21.92
2022-08-05T11:00:19.229Z,21.50
2022-08-05T11:03:24.810Z,20.33
2022-08-05T11:06:06.051Z,19.88
2022-08-05T11:08:39.162Z,18.95
2022-08-05T11:11:52.359Z,17.13
2022-08-05T11:14:57.533Z,17.00
2022-08-05T11:17:59.555Z,13.88
2022-08-05T11:20:39.188Z,13.32
2022-08-05T11:24:02.526Z,14.23
2022-08-05T11:26:28.857Z,11.45
2022-08-05T11:29:13.466Z,11.85
2022-08-05T11:31:57.571Z,11.93
2022-08-05T11:34:50.918Z,12.38
2022-08-05T11:38:30.567Z,11.85
2022-08-05T11:41:03.444Z,10.15
2022-08-05T11:44:06.214Z,10.13
2022-08-05T11:46:34.896Z,8.35
2022-08-05T11:49:08.007Z,7.97
2022-08-05T11:51:44.616Z,7.38
2022-08-05T11:54:33.654Z,7.55
2022-08-05T11:57:07.942Z,7.75
2022-08-05T11:59:50.189Z,7.50
2022-08-05T12:02:24.486Z,4.82
2022-08-05T12:05:06.730Z,3.33
2022-08-05T12:08:07.463Z,2.30
2022-08-05T12:10:38.388Z,2.00
2022-08-05T12:13:27.725Z,2.38
2022-08-05T12:16:14.763Z,1.92
2022-08-05T12:18:49.114Z,2.63
2022-08-05T12:21:25.015Z,2.38
2022-08-05T12:24:00.096Z,1.58
2022-08-05T12:26:33.993Z,1.35
2022-08-05T12:29:03.178Z,1.10
2022-08-05T12:31:42.434Z,2.65
2022-08-05T12:34:21.096Z,1.95
2022-08-05T12:36:53.188Z,1.13
2022-08-05T12:39:22.002Z,0.90
2022-08-05T12:41:58.043Z,0.82
2022-08-05T12:44:33.118Z,1.58
2022-08-05T12:47:02.835Z,0.75
2022-08-05T12:50:04.720Z,0.90
2022-08-05T12:52:39.702Z,0.80
2022-08-05T12:55:22.127Z,1.60
2022-08-05T12:58:48.635Z,1.48
2022-08-05T13:02:02.217Z,1.67
2022-08-05T13:03:33.107Z,0.85
2022-08-05T13:06:02.095Z,3.05
2022-08-05T13:08:32.987Z,0.95
2022-08-05T13:11:02.143Z,2.53
2022-08-05T13:14:06.090Z,1.23
2022-08-05T13:16:24.947Z,4.20
2022-08-05T13:18:57.740Z,3.22
2022-08-05T13:21:28.374Z,3.50
2022-08-05T13:24:08.960Z,1.67
2022-08-05T13:26:37.358Z,2.05
2022-08-05T13:29:05.654Z,1.67
2022-08-05T13:32:05.143Z,1.45
2022-08-05T13:34:26.069Z,1.38
2022-08-05T13:36:54.892Z,3.60
2022-08-05T13:40:14.160Z,2.40
2022-08-05T13:42:14.055Z,2.05
2022-08-05T13:44:45.354Z,2.53
2022-08-05T13:47:34.998Z,3.22
2022-08-05T13:50:04.512Z,1.55
2022-08-05T13:52:35.189Z,5.38
2022-08-05T13:55:07.741Z,2.55
2022-08-05T13:57:51.235Z,5.82
2022-08-05T14:00:27.088Z,2.25
2022-08-05T14:02:56.983Z,2.65
2022-08-05T14:05:29.410Z,2.30
2022-08-05T14:08:20.738Z,3.97
2022-08-05T14:11:03.205Z,2.50
2022-08-05T14:13:48.193Z,3.38
2022-08-05T14:16:19.262Z,2.92
2022-08-05T14:18:47.492Z,3.42
2022-08-05T14:22:08.321Z,2.25
2022-08-05T14:24:04.241Z,2.22
2022-08-05T14:26:38.625Z,2.00
2022-08-05T14:29:16.824Z,3.63
2022-08-05T14:32:03.520Z,1.95
2022-08-05T14:34:35.224Z,1.77
2022-08-05T14:37:04.637Z,4.15
2022-08-05T14:39:50.294Z,2.08
2022-08-05T14:42:23.187Z,1.92
2022-08-05T14:44:53.613Z,3.75
2022-08-05T14:48:03.103Z,3.30
2022-08-05T14:50:19.123Z,2.92
2022-08-05T14:52:53.563Z,2.20
2022-08-05T14:55:26.077Z,1.80
2022-08-05T14:58:12.032Z,4.30
2022-08-05T15:00:59.182Z,3.42
2022-08-05T15:03:33.157Z,1.95
2022-08-05T15:06:07.313Z,2.03
2022-08-05T15:08:59.488Z,4.45
2022-08-05T15:11:53.005Z,2.33
2022-08-05T15:14:33.436Z,3.35
2022-08-05T15:17:04.288Z,2.17
2022-08-05T15:19:33.019Z,1.50
2022-08-05T15:22:01.985Z,3.08
2022-08-05T15:24:30.372Z,3.75
2022-08-05T15:26:59.027Z,3.38
2022-08-05T15:29:30.038Z,1.75
2022-08-05T15:32:03.303Z,2.67
2022-08-05T15:34:34.455Z,2.05
2022-08-05T15:37:07.021Z,2.28
2022-08-05T15:40:59.161Z,2.20
2022-08-05T15:42:55.786Z,2.50
2022-08-05T15:45:38.123Z,2.17
2022-08-05T15:48:07.213Z,5.93
2022-08-05T15:50:35.816Z,3.97
2022-08-05T15:53:06.297Z,3.80
2022-08-05T15:56:02.090Z,2.45
2022-08-05T15:58:25.227Z,4.35
2022-08-05T16:03:44.441Z,1.70
2022-08-05T16:06:20.377Z,1.60
2022-08-05T16:08:51.043Z,2.35
2022-08-05T16:11:39.962Z,4.40
2022-08-05T16:14:09.793Z,2.30
2022-08-05T16:16:39.133Z,3.78
2022-08-05T16:19:07.417Z,4.22
2022-08-05T16:21:58.818Z,5.43
2022-08-05T16:24:41.164Z,3.80
2022-08-05T16:27:15.887Z,3.72
2022-08-05T16:29:50.013Z,2.25
2022-08-05T16:32:23.340Z,2.88
2022-08-05T16:34:57.278Z,4.53
2022-08-05T16:38:15.574Z,2.60
2022-08-05T16:40:26.528Z,3.38
2022-08-05T16:42:58.081Z,3.40
2022-08-05T16:46:03.701Z,4.65
2022-08-05T16:48:25.271Z,4.57
2022-08-05T16:50:54.612Z,2.50
2022-08-05T16:53:32.215Z,6.78
2022-08-05T16:56:12.264Z,3.85
2022-08-05T16:58:40.710Z,5.55
2022-08-05T17:01:10.509Z,2.67
2022-08-05T17:03:40.196Z,6.03
2022-08-05T17:06:09.216Z,4.03
2022-08-05T17:08:53.405Z,5.45
2022-08-05T17:11:23.502Z,3.38
2022-08-05T17:14:00.420Z,2.78
2022-08-05T17:16:36.516Z,2.85
2022-08-05T17:19:07.759Z,3.65
2022-08-05T17:21:39.734Z,4.38
2022-08-05T17:24:28.008Z,3.92
2022-08-05T17:26:57.788Z,7.53
2022-08-05T17:29:32.832Z,5.63
2022-08-05T17:32:08.465Z,2.40
2022-08-05T17:34:42.034Z,3.53
2022-08-05T17:37:36.123Z,5.07
2022-08-05T17:40:00.028Z,2.55
2022-08-05T17:42:31.872Z,1.60
2022-08-05T17:45:00.678Z,3.45
2022-08-05T17:47:49.923Z,1.60
2022-08-05T17:50:28.934Z,3.20
2022-08-05T17:53:00.907Z,1.85
2022-08-05T17:55:38.449Z,2.33
2022-08-05T17:58:11.215Z,4.57
2022-08-05T18:00:45.307Z,3.63
2022-08-05T18:03:33.223Z,4.85
2022-08-05T18:06:11.915Z,1.70
2022-08-05T18:08:46.220Z,1.45
2022-08-05T18:11:23.876Z,2.97
2022-08-05T18:13:59.701Z,1.17
2022-08-05T18:16:28.136Z,3.17
2022-08-05T18:18:56.163Z,1.90
2022-08-05T18:21:28.235Z,2.92
2022-08-05T18:24:14.953Z,2.75
2022-08-05T18:26:43.774Z,5.25
2022-08-05T18:29:12.060Z,2.53
2022-08-05T18:31:45.010Z,3.13
2022-08-05T18:34:13.512Z,1.90
2022-08-05T18:36:44.229Z,1.50
2022-08-05T18:39:42.591Z,3.80
2022-08-05T18:42:05.016Z,2.17
2022-08-05T18:44:48.933Z,2.97
2022-08-05T18:47:19.914Z,1.92
2022-08-05T18:50:10.707Z,2.85
2022-08-05T18:52:51.006Z,3.58
2022-08-05T18:55:21.495Z,2.85
2022-08-05T18:57:53.902Z,7.80
2022-08-05T19:00:28.395Z,3.47
2022-08-05T19:03:04.021Z,2.17
2022-08-05T19:06:12.177Z,3.22
2022-08-05T19:08:30.601Z,2.00
2022-08-05T19:11:04.857Z,3.63
2022-08-05T19:13:35.648Z,3.58
2022-08-05T19:16:04.111Z,3.47
2022-08-05T19:18:32.208Z,4.97
2022-08-05T19:21:00.513Z,1.73
2022-08-05T19:24:06.877Z,1.85
2022-08-05T19:26:19.822Z,2.20
2022-08-05T19:28:47.832Z,2.60
2022-08-05T19:31:19.406Z,3.92
2022-08-05T19:33:56.494Z,2.75
2022-08-05T19:36:25.633Z,4.20
2022-08-05T19:38:58.913Z,7.03
2022-08-05T19:42:05.823Z,1.45
2022-08-05T19:44:16.968Z,3.38
2022-08-05T19:46:46.697Z,5.65
2022-08-05T19:49:17.136Z,2.20
2022-08-05T19:52:05.583Z,2.83
2022-08-05T19:54:37.049Z,2.65
2022-08-05T19:57:09.415Z,3.30
2022-08-05T20:00:00.766Z,3.85
2022-08-05T20:02:31.392Z,2.92
2022-08-05T20:05:00.182Z,2.78
2022-08-05T20:07:47.212Z,3.17
2022-08-05T20:10:22.300Z,2.10
2022-08-05T20:12:52.448Z,1.80
2022-08-05T20:15:23.129Z,2.80
2022-08-05T20:18:33.132Z,2.20
2022-08-05T20:20:59.982Z,2.55
2022-08-05T20:23:39.397Z,2.40
2022-08-05T20:26:19.645Z,3.08
2022-08-05T20:28:50.277Z,5.15
2022-08-05T20:31:21.862Z,2.92
2022-08-05T20:33:57.051Z,4.97
2022-08-05T20:36:25.683Z,1.50
2022-08-05T20:38:58.061Z,4.93
2022-08-05T20:41:43.307Z,2.60
2022-08-05T20:44:18.831Z,2.85
2022-08-05T20:46:57.122Z,1.77
2022-08-05T20:49:26.165Z,1.55
2022-08-05T20:51:54.757Z,2.47
2022-08-05T20:54:22.972Z,3.85
2022-08-05T20:56:54.319Z,1.33
2022-08-05T20:59:26.525Z,2.38
2022-08-05T21:01:57.937Z,1.50
2022-08-05T21:04:27.087Z,2.78
2022-08-05T21:06:55.767Z,2.72
2022-08-05T21:09:24.051Z,3.28
2022-08-05T21:12:10.353Z,2.30
2022-08-05T21:14:41.189Z,1.88
2022-08-05T21:17:11.597Z,2.75
2022-08-05T21:19:47.107Z,2.80
2022-08-05T21:22:23.490Z,5.40
2022-08-05T21:24:54.174Z,2.25
2022-08-05T21:27:25.019Z,5.15
2022-08-05T21:29:56.803Z,2.92
2022-08-05T21:32:27.140Z,3.85
2022-08-05T21:35:16.748Z,1.52
2022-08-05T21:37:53.082Z,2.03
2022-08-05T21:40:23.315Z,1.50
2022-08-05T21:42:53.471Z,1.98
2022-08-05T21:45:24.295Z,4.05
2022-08-05T21:47:56.825Z,1.85
2022-08-05T21:50:26.178Z,2.05
2022-08-05T21:52:58.762Z,1.65
2022-08-05T21:56:04.269Z,2.42
2022-08-05T21:58:20.590Z,1.65
2022-08-05T22:01:00.802Z,2.45
2022-08-05T22:03:49.016Z,1.95
2022-08-05T22:06:23.142Z,2.30
2022-08-05T22:09:14.557Z,1.90
2022-08-05T22:11:46.698Z,3.03
2022-08-05T22:14:34.517Z,1.88
2022-08-05T22:17:07.604Z,2.17
2022-08-05T22:20:03.033Z,2.72
2022-08-05T22:22:28.151Z,1.40
2022-08-05T22:25:20.955Z,2.33
2022-08-05T22:28:10.181Z,2.42
2022-08-05T22:30:44.224Z,2.90
2022-08-05T22:33:58.343Z,7.00
2022-08-05T22:36:15.427Z,1.88
2022-08-05T22:38:48.284Z,6.82
2022-08-05T22:42:04.179Z,2.42
2022-08-05T22:44:08.264Z,2.65
2022-08-05T22:46:40.087Z,3.88
2022-08-05T22:49:12.132Z,2.00
2022-08-05T22:52:04.395Z,1.88
2022-08-05T22:54:34.958Z,2.60
2022-08-05T22:57:03.368Z,3.45
2022-08-05T22:59:47.407Z,1.77
2022-08-05T23:02:29.025Z,1.85
2022-08-05T23:05:01.813Z,1.80
2022-08-05T23:07:33.060Z,2.42
2022-08-05T23:10:14.217Z,2.22
2022-08-05T23:12:43.104Z,2.13
2022-08-05T23:15:13.131Z,2.28
2022-08-05T23:18:00.531Z,2.63
2022-08-05T23:20:31.212Z,1.30
2022-08-05T23:23:00.453Z,1.75
2022-08-05T23:25:52.004Z,1.75
2022-08-05T23:28:19.839Z,1.45
2022-08-05T23:30:54.076Z,2.03
2022-08-05T23:34:03.200Z,2.50
2022-08-05T23:36:13.976Z,1.77
2022-08-05T23:38:43.496Z,1.60
2022-08-05T23:41:12.414Z,1.70
2022-08-05T23:44:04.708Z,3.88
2022-08-05T23:46:29.725Z,1.88
2022-08-05T23:49:00.371Z,3.20
2022-08-05T23:51:52.422Z,2.53
2022-08-05T23:54:25.457Z,1.77
2022-08-05T23:56:58.225Z,4.03
